createdAt,value
2022-08-02T00:02:17.643Z,6.97
2022-08-02T00:04:41.315Z,9.35
2022-08-02T00:07:06.504Z,4.80
2022-08-02T00:09:30.337Z,8.18
2022-08-02T00:11:54.096Z,8.30
2022-08-02T00:14:17.895Z,5.97
2022-08-02T00:16:41.713Z,7.15
2022-08-02T00:19:05.537Z,7.55
2022-08-02T00:21:29.244Z,7.65
2022-08-02T00:24:27.588Z,7.90
2022-08-02T00:26:38.183Z,7.20
2022-08-02T00:29:02.089Z,6.57
2022-08-02T00:31:25.932Z,5.68
2022-08-02T00:34:26.317Z,4.18
2022-08-02T00:36:33.408Z,5.63
2022-08-02T00:38:58.777Z,5.50
2022-08-02T00:41:23.843Z,6.38
2022-08-02T00:43:49.233Z,5.50
2022-08-02T00:46:13.023Z,4.85
2022-08-02T00:48:36.788Z,9.75
2022-08-02T00:51:05.581Z,5.70
2022-08-02T00:53:29.406Z,8.50
2022-08-02T00:55:54.605Z,5.38
2022-08-02T00:58:18.391Z,7.85
2022-08-02T01:00:42.239Z,7.65
2022-08-02T01:03:06.058Z,6.57
2022-08-02T01:05:30.604Z,8.43
2022-08-02T01:07:54.368Z,9.30
2022-08-02T01:10:18.084Z,9.40
2022-08-02T01:12:45.099Z,6.38
2022-08-02T01:15:12.172Z,7.55
2022-08-02T01:17:45.715Z,7.45
2022-08-02T01:20:25.268Z,7.80
2022-08-02T01:23:11.208Z,8.95
2022-08-02T01:26:04.880Z,7.65
2022-08-02T01:28:39.624Z,9.73
2022-08-02T01:31:11.783Z,6.47
2022-08-02T01:33:43.151Z,8.95
2022-08-02T01:36:11.544Z,10.75
2022-08-02T01:38:40.802Z,7.95
2022-08-02T01:41:07.117Z,12.05
2022-08-02T01:43:35.495Z,10.48
2022-08-02T01:46:01.180Z,11.88
2022-08-02T01:48:26.280Z,13.55
2022-08-02T01:50:52.961Z,12.88
2022-08-02T01:53:20.719Z,10.05
2022-08-02T01:55:58.282Z,4.07
2022-08-02T01:58:28.216Z,7.07
2022-08-02T02:00:55.488Z,7.70
2022-08-02T02:03:24.623Z,7.05
2022-08-02T02:05:50.472Z,5.90
2022-08-02T02:08:14.935Z,9.10
2022-08-02T02:10:52.468Z,11.38
2022-08-02T02:13:20.200Z,7.68
2022-08-02T02:15:48.767Z,4.28
2022-08-02T02:18:20.456Z,7.20
2022-08-02T02:20:44.547Z,5.97
2022-08-02T02:23:08.418Z,6.25
2022-08-02T02:25:35.784Z,6.85
2022-08-02T02:28:06.532Z,5.63
2022-08-02T02:30:32.888Z,5.97
2022-08-02T02:33:01.040Z,8.45
2022-08-02T02:35:31.670Z,6.55
2022-08-02T02:37:57.863Z,10.25
2022-08-02T02:40:22.532Z,6.32
2022-08-02T02:42:49.288Z,7.22
2022-08-02T02:45:14.035Z,6.22
2022-08-02T02:47:40.761Z,6.30
2022-08-02T02:50:06.895Z,6.53
2022-08-02T02:52:32.740Z,9.55
2022-08-02T02:54:57.035Z,7.43
2022-08-02T02:57:22.416Z,9.48
2022-08-02T02:59:49.723Z,9.63
2022-08-02T03:02:14.891Z,8.95
2022-08-02T03:04:56.931Z,9.30
2022-08-02T03:07:21.696Z,5.72
2022-08-02T03:09:47.973Z,6.03
2022-08-02T03:12:18.781Z,7.70
2022-08-02T03:14:45.182Z,8.80
2022-08-02T03:17:13.344Z,8.02
2022-08-02T03:19:37.107Z,8.93
2022-08-02T03:22:00.873Z,7.43
2022-08-02T03:24:27.841Z,7.13
2022-08-02T03:26:53.589Z,5.55
2022-08-02T03:29:17.293Z,6.15
2022-08-02T03:31:43.152Z,8.63
2022-08-02T03:34:06.893Z,5.70
2022-08-02T03:36:34.488Z,8.50
2022-08-02T03:38:59.514Z,8.85
2022-08-02T03:41:24.766Z,13.57
2022-08-02T03:43:51.845Z,10.85
2022-08-02T03:46:19.872Z,20.85
2022-08-02T03:48:44.089Z,6.88
2022-08-02T03:51:08.631Z,14.52
2022-08-02T03:53:32.600Z,10.50
2022-08-02T03:55:56.524Z,9.45
2022-08-02T03:58:21.382Z,12.50
2022-08-02T04:00:46.874Z,7.57
2022-08-02T04:03:10.970Z,16.83
2022-08-02T04:05:35.056Z,13.02
2022-08-02T04:08:35.119Z,12.55
2022-08-02T04:11:18.809Z,11.40
2022-08-02T04:13:42.772Z,9.63
2022-08-02T04:16:15.227Z,8.68
2022-08-02T04:18:46.883Z,10.05
2022-08-02T04:21:15.070Z,10.77
2022-08-02T04:23:40.180Z,8.70
2022-08-02T04:26:08.699Z,11.23
2022-08-02T04:28:38.496Z,10.80
2022-08-02T04:31:02.616Z,8.27
2022-08-02T04:33:28.567Z,12.27
2022-08-02T04:35:56.504Z,6.75
2022-08-02T04:38:23.073Z,11.98
2022-08-02T04:40:53.404Z,7.97
2022-08-02T04:43:17.123Z,10.50
2022-08-02T04:45:40.892Z,9.00
2022-08-02T04:48:06.040Z,8.60
2022-08-02T04:50:31.611Z,11.48
2022-08-02T04:52:55.362Z,14.20
2022-08-02T04:55:19.040Z,13.40
2022-08-02T04:57:58.827Z,18.30
2022-08-02T05:00:23.458Z,21.17
2022-08-02T05:02:47.188Z,23.85
2022-08-02T05:05:11.149Z,20.73
2022-08-02T05:07:36.283Z,21.83
2022-08-02T05:10:00.655Z,19.95
2022-08-02T05:12:26.309Z,27.65
2022-08-02T05:14:50.254Z,19.60
2022-08-02T05:17:13.883Z,15.25
2022-08-02T05:19:37.607Z,15.63
2022-08-02T05:22:01.648Z,15.20
2022-08-02T05:24:26.828Z,17.58
2022-08-02T05:26:50.896Z,14.85
2022-08-02T05:29:14.622Z,12.32
2022-08-02T05:31:38.244Z,15.38
2022-08-02T05:34:02.048Z,8.38
2022-08-02T05:36:25.711Z,7.97
2022-08-02T05:38:50.905Z,7.68
2022-08-02T05:41:16.021Z,9.43
2022-08-02T05:43:39.878Z,6.28
2022-08-02T05:46:03.567Z,7.07
2022-08-02T05:48:31.651Z,7.85
2022-08-02T05:51:01.177Z,8.00
2022-08-02T05:53:34.432Z,8.43
2022-08-02T05:56:14.081Z,8.45
2022-08-02T05:58:50.905Z,7.65
2022-08-02T06:01:25.901Z,7.82
2022-08-02T06:03:54.117Z,7.50
2022-08-02T06:06:23.469Z,7.55
2022-08-02T06:08:50.001Z,8.63
2022-08-02T06:11:16.547Z,8.25
2022-08-02T06:13:43.106Z,8.38
2022-08-02T06:16:07.556Z,8.05
2022-08-02T06:18:38.381Z,11.30
2022-08-02T06:22:32.982Z,10.55
2022-08-02T06:23:57.458Z,7.55
2022-08-02T06:26:24.503Z,6.57
2022-08-02T06:28:50.745Z,6.80
2022-08-02T06:31:16.408Z,9.10
2022-08-02T06:33:40.696Z,6.40
2022-08-02T06:36:11.003Z,8.15
2022-08-02T06:38:42.791Z,12.88
2022-08-02T06:41:17.102Z,4.20
2022-08-02T06:43:54.979Z,8.23
2022-08-02T06:47:09.669Z,8.77
2022-08-02T06:49:03.867Z,9.90
2022-08-02T06:51:27.837Z,8.48
2022-08-02T06:53:51.655Z,9.23
2022-08-02T06:56:15.763Z,7.95
2022-08-02T06:58:40.153Z,6.47
2022-08-02T07:01:07.479Z,7.13
2022-08-02T07:03:31.283Z,8.95
2022-08-02T07:05:55.204Z,3.45
2022-08-02T07:08:19.979Z,8.48
2022-08-02T07:10:43.744Z,8.77
2022-08-02T07:13:07.513Z,4.57
2022-08-02T07:15:31.262Z,5.05
2022-08-02T07:17:56.408Z,6.20
2022-08-02T07:20:20.123Z,5.53
2022-08-02T07:22:44.205Z,6.57
2022-08-02T07:25:09.318Z,5.72
2022-08-02T07:27:33.677Z,8.55
2022-08-02T07:29:57.660Z,7.40
2022-08-02T07:32:23.857Z,6.80
2022-08-02T07:34:52.747Z,4.72
2022-08-02T07:37:35.657Z,6.88
2022-08-02T07:40:01.012Z,9.20
2022-08-02T07:42:27.321Z,5.93
2022-08-02T07:44:51.160Z,8.55
2022-08-02T07:47:15.083Z,5.80
2022-08-02T07:49:39.019Z,4.78
2022-08-02T07:52:04.700Z,6.38
2022-08-02T07:54:28.428Z,5.68
2022-08-02T07:56:57.598Z,6.05
2022-08-02T07:59:22.742Z,7.70
2022-08-02T08:01:46.526Z,7.85
2022-08-02T08:04:10.329Z,13.60
2022-08-02T08:06:34.364Z,5.55
2022-08-02T08:09:00.268Z,5.25
2022-08-02T08:11:24.327Z,13.32
2022-08-02T08:13:48.029Z,5.03
2022-08-02T08:16:12.230Z,6.13
2022-08-02T08:18:36.403Z,5.97
2022-08-02T08:21:00.823Z,6.53
2022-08-02T08:23:24.616Z,7.93
2022-08-02T08:25:49.721Z,5.38
2022-08-02T08:28:13.517Z,8.82
2022-08-02T08:30:37.233Z,7.63
2022-08-02T08:33:00.992Z,6.18
2022-08-02T08:35:24.693Z,3.65
2022-08-02T08:37:49.371Z,6.28
2022-08-02T08:40:19.670Z,6.47
2022-08-02T08:42:45.226Z,4.63
2022-08-02T08:45:10.593Z,3.08
2022-08-02T08:47:39.136Z,5.55
2022-08-02T08:50:07.143Z,8.25
2022-08-02T08:52:33.836Z,3.47
2022-08-02T08:54:59.394Z,4.28
2022-08-02T08:57:23.384Z,6.93
2022-08-02T08:59:48.642Z,4.85
2022-08-02T09:02:17.853Z,7.63
2022-08-02T09:04:50.555Z,7.78
2022-08-02T09:07:19.235Z,6.28
2022-08-02T09:09:42.873Z,4.22
2022-08-02T09:12:16.635Z,7.05
2022-08-02T09:14:40.535Z,7.70
2022-08-02T09:17:13.427Z,6.35
2022-08-02T09:19:37.549Z,4.95
2022-08-02T09:22:05.517Z,6.45
2022-08-02T09:24:31.664Z,12.00
2022-08-02T09:26:55.620Z,6.55
2022-08-02T09:29:23.409Z,5.97
2022-08-02T09:31:49.622Z,6.40
2022-08-02T09:34:15.392Z,6.28
2022-08-02T09:36:46.801Z,4.60
2022-08-02T09:39:12.500Z,5.90
2022-08-02T09:41:38.632Z,5.10
2022-08-02T09:44:06.557Z,5.13
2022-08-02T09:46:33.546Z,8.88
2022-08-02T09:48:58.882Z,4.97
2022-08-02T09:51:27.932Z,6.80
2022-08-02T09:54:05.958Z,6.20
2022-08-02T09:56:45.335Z,5.20
2022-08-02T09:59:09.709Z,7.00
2022-08-02T10:01:37.647Z,5.93
2022-08-02T10:04:04.837Z,4.22
2022-08-02T10:06:31.144Z,4.13
2022-08-02T10:08:55.506Z,5.90
2022-08-02T10:11:19.504Z,4.20
2022-08-02T10:13:44.316Z,6.32
2022-08-02T10:16:08.319Z,6.88
2022-08-02T10:18:41.045Z,3.80
2022-08-02T10:21:11.664Z,4.78
2022-08-02T10:23:40.630Z,6.53
2022-08-02T10:26:06.051Z,3.85
2022-08-02T10:28:31.540Z,4.38
2022-08-02T10:30:57.192Z,5.22
2022-08-02T10:33:22.356Z,6.43
2022-08-02T10:35:49.085Z,7.20
2022-08-02T10:38:28.732Z,7.95
2022-08-02T10:40:56.343Z,5.80
2022-08-02T10:43:50.066Z,5.93
2022-08-02T10:46:25.352Z,3.05
2022-08-02T10:49:37.397Z,4.25
2022-08-02T10:52:15.832Z,6.72
2022-08-02T10:54:42.008Z,5.80
2022-08-02T10:57:19.040Z,4.82
2022-08-02T10:59:42.780Z,5.43
2022-08-02T11:02:07.841Z,5.95
2022-08-02T11:04:33.505Z,4.00
2022-08-02T11:07:16.982Z,3.25
2022-08-02T11:09:40.732Z,8.60
2022-08-02T11:12:09.582Z,2.78
2022-08-02T11:14:35.985Z,4.30
2022-08-02T11:17:14.943Z,5.25
2022-08-02T11:20:21.117Z,3.60
2022-08-02T11:22:46.932Z,5.00
2022-08-02T11:26:02.214Z,1.70
2022-08-02T11:28:24.606Z,2.90
2022-08-02T11:30:59.021Z,4.75
2022-08-02T11:33:23.124Z,3.45
2022-08-02T11:35:47.517Z,4.65
2022-08-02T11:38:19.965Z,3.30
2022-08-02T11:40:45.100Z,4.78
2022-08-02T11:43:20.639Z,3.85
2022-08-02T11:45:44.437Z,3.38
2022-08-02T11:48:08.135Z,4.10
2022-08-02T11:50:31.880Z,2.75
2022-08-02T11:52:55.596Z,4.43
2022-08-02T11:55:19.411Z,6.70
2022-08-02T11:58:03.343Z,3.80
2022-08-02T12:00:30.628Z,4.60
2022-08-02T12:02:54.948Z,3.47
2022-08-02T12:05:24.677Z,4.47
2022-08-02T12:08:09.143Z,7.38
2022-08-02T12:10:33.024Z,3.97
2022-08-02T12:12:59.285Z,5.35
2022-08-02T12:15:36.855Z,4.90
2022-08-02T12:18:18.625Z,4.25
2022-08-02T12:20:42.811Z,4.80
2022-08-02T12:23:07.016Z,5.50
2022-08-02T12:25:33.640Z,5.00
2022-08-02T12:28:19.921Z,3.05
2022-08-02T12:30:54.719Z,3.10
2022-08-02T12:33:18.491Z,4.22
2022-08-02T12:35:42.209Z,3.78
2022-08-02T12:38:12.272Z,5.00
2022-08-02T12:40:36.422Z,5.78
2022-08-02T12:43:02.039Z,5.00
2022-08-02T12:45:26.800Z,3.05
2022-08-02T12:48:03.065Z,2.85
2022-08-02T12:50:31.562Z,6.25
2022-08-02T12:53:07.720Z,4.13
2022-08-02T12:56:02.510Z,3.65
2022-08-02T12:58:17.889Z,3.72
2022-08-02T13:00:41.915Z,2.83
2022-08-02T13:04:07.826Z,6.13
2022-08-02T13:05:57.278Z,5.18
2022-08-02T13:08:21.993Z,4.45
2022-08-02T13:10:46.364Z,5.85
2022-08-02T13:13:10.366Z,5.93
2022-08-02T13:15:49.843Z,5.03
2022-08-02T13:18:17.583Z,2.50
2022-08-02T13:20:44.717Z,4.00
2022-08-02T13:23:09.567Z,4.13
2022-08-02T13:25:45.327Z,5.15
2022-08-02T13:28:16.058Z,3.28
2022-08-02T13:30:40.330Z,3.45
2022-08-02T13:33:04.136Z,3.25
2022-08-02T13:35:29.419Z,3.20
2022-08-02T13:37:53.169Z,3.28
2022-08-02T13:40:21.970Z,5.80
2022-08-02T13:42:46.262Z,2.85
2022-08-02T13:45:12.891Z,5.50
2022-08-02T13:48:04.750Z,3.40
2022-08-02T13:50:25.503Z,3.63
2022-08-02T13:52:51.197Z,2.33
2022-08-02T13:55:15.736Z,2.78
2022-08-02T13:57:39.428Z,8.18
2022-08-02T14:00:07.365Z,3.55
2022-08-02T14:02:31.018Z,3.80
2022-08-02T14:04:54.756Z,3.75
2022-08-02T14:07:18.469Z,2.47
2022-08-02T14:09:44.384Z,2.83
2022-08-02T14:12:10.086Z,4.85
2022-08-02T14:14:34.343Z,3.13
2022-08-02T14:16:58.044Z,3.67
2022-08-02T14:19:25.808Z,3.42
2022-08-02T14:21:49.728Z,3.10
2022-08-02T14:24:13.557Z,4.53
2022-08-02T14:26:38.644Z,3.92
2022-08-02T14:29:02.413Z,3.90
2022-08-02T14:31:26.145Z,5.25
2022-08-02T14:33:49.935Z,6.60
2022-08-02T14:36:13.648Z,4.25
2022-08-02T14:38:37.869Z,3.40
2022-08-02T14:41:01.532Z,6.55
2022-08-02T14:43:44.183Z,3.83
2022-08-02T14:46:07.959Z,4.97
2022-08-02T14:48:31.732Z,5.43
2022-08-02T14:50:55.496Z,5.68
2022-08-02T14:53:19.236Z,4.88
2022-08-02T14:55:44.367Z,5.25
2022-08-02T14:58:08.103Z,4.53
2022-08-02T15:00:35.980Z,5.13
2022-08-02T15:03:04.292Z,3.72
2022-08-02T15:05:32.877Z,4.03
2022-08-02T15:07:56.658Z,4.05
2022-08-02T15:10:20.372Z,6.13
2022-08-02T15:12:44.133Z,6.22
2022-08-02T15:15:09.188Z,2.22
2022-08-02T15:17:34.380Z,5.47
2022-08-02T15:20:01.993Z,2.85
2022-08-02T15:22:41.766Z,6.22
2022-08-02T15:25:06.744Z,6.45
2022-08-02T15:27:39.505Z,7.50
2022-08-02T15:30:03.352Z,2.67
2022-08-02T15:32:27.717Z,5.07
2022-08-02T15:34:52.869Z,6.40
2022-08-02T15:37:16.657Z,6.72
2022-08-02T15:39:40.536Z,4.32
2022-08-02T15:42:04.699Z,4.47
2022-08-02T15:44:28.440Z,4.55
2022-08-02T15:46:53.484Z,5.40
2022-08-02T15:49:17.228Z,2.72
2022-08-02T15:51:42.406Z,7.05
2022-08-02T15:54:06.232Z,4.45
2022-08-02T15:56:30.003Z,5.57
2022-08-02T15:58:56.082Z,4.43
2022-08-02T16:01:22.926Z,2.03
2022-08-02T16:03:46.711Z,5.53
2022-08-02T16:06:10.502Z,4.55
2022-08-02T16:08:35.636Z,12.15
2022-08-02T16:10:59.368Z,17.10
2022-08-02T16:13:53.263Z,14.52
2022-08-02T16:16:18.066Z,35.08
2022-08-02T16:18:41.732Z,32.25
2022-08-02T16:21:05.725Z,14.70
2022-08-02T16:23:59.066Z,7.78
2022-08-02T16:26:14.619Z,7.40
2022-08-02T16:28:39.417Z,5.05
2022-08-02T16:31:11.009Z,7.20
2022-08-02T16:33:35.205Z,4.78
2022-08-02T16:35:59.891Z,9.55
2022-08-02T16:38:23.607Z,8.88
2022-08-02T16:40:47.325Z,7.90
2022-08-02T16:43:12.444Z,7.75
2022-08-02T16:45:36.165Z,6.50
2022-08-02T16:48:03.650Z,4.38
2022-08-02T16:50:29.810Z,7.75
2022-08-02T16:52:53.584Z,9.57
2022-08-02T16:55:17.346Z,6.15
2022-08-02T16:57:43.156Z,5.53
2022-08-02T17:00:15.541Z,4.43
2022-08-02T17:02:40.106Z,5.57
2022-08-02T17:05:03.828Z,6.53
2022-08-02T17:08:08.736Z,5.80
2022-08-02T17:10:11.385Z,7.20
2022-08-02T17:12:35.328Z,8.35
2022-08-02T17:15:00.713Z,4.65
2022-08-02T17:17:34.571Z,5.10
2022-08-02T17:19:58.623Z,4.43
2022-08-02T17:22:24.296Z,4.55
2022-08-02T17:24:49.192Z,4.13
2022-08-02T17:27:13.429Z,5.68
2022-08-02T17:29:42.143Z,13.32
2022-08-02T17:32:11.615Z,4.05
2022-08-02T17:34:38.032Z,4.78
2022-08-02T17:37:01.843Z,6.20
2022-08-02T17:39:34.263Z,5.95
2022-08-02T17:42:07.146Z,10.48
2022-08-02T17:44:36.965Z,10.63
2022-08-02T17:47:01.913Z,7.97
2022-08-02T17:49:25.966Z,8.50
2022-08-02T17:52:15.217Z,10.80
2022-08-02T17:54:36.087Z,8.60
2022-08-02T17:56:59.789Z,14.13
2022-08-02T17:59:30.644Z,11.63
2022-08-02T18:02:05.823Z,12.65
2022-08-02T18:04:32.099Z,11.82
2022-08-02T18:06:59.452Z,15.75
2022-08-02T18:09:27.927Z,16.15
2022-08-02T18:11:52.961Z,14.65
2022-08-02T18:14:19.295Z,15.32
2022-08-02T18:16:43.673Z,13.38
2022-08-02T18:19:10.165Z,12.75
2022-08-02T18:21:41.166Z,12.45
2022-08-02T18:24:07.615Z,13.38
2022-08-02T18:26:32.200Z,30.35
2022-08-02T18:28:56.569Z,26.75
2022-08-02T18:31:22.293Z,22.75
2022-08-02T18:34:00.016Z,18.15
2022-08-02T18:36:26.048Z,23.25
2022-08-02T18:38:49.756Z,30.75
2022-08-02T18:41:14.983Z,21.92
2022-08-02T18:43:43.534Z,25.63
2022-08-02T18:46:15.493Z,28.23
2022-08-02T18:48:54.898Z,27.63
2022-08-02T18:51:20.017Z,28.80
2022-08-02T18:53:44.060Z,36.40
2022-08-02T18:56:19.428Z,20.48
2022-08-02T18:58:49.352Z,20.65
2022-08-02T19:01:14.765Z,17.40
2022-08-02T19:03:49.200Z,16.67
2022-08-02T19:06:13.190Z,15.98
2022-08-02T19:08:37.336Z,17.40
2022-08-02T19:11:02.606Z,15.60
2022-08-02T19:13:26.648Z,17.20
2022-08-02T19:15:52.401Z,16.10
2022-08-02T19:18:16.228Z,13.60
2022-08-02T19:20:40.938Z,17.10
2022-08-02T19:23:12.180Z,18.70
2022-08-02T19:25:39.428Z,14.30
2022-08-02T19:28:14.161Z,13.82
2022-08-02T19:30:37.909Z,15.98
2022-08-02T19:33:08.497Z,13.48
2022-08-02T19:35:34.377Z,10.02
2022-08-02T19:38:07.439Z,13.35
2022-08-02T19:40:31.307Z,16.63
2022-08-02T19:44:25.692Z,10.40
2022-08-02T19:45:49.094Z,7.45
2022-08-02T19:48:16.059Z,7.05
2022-08-02T19:50:40.980Z,8.15
2022-08-02T19:53:08.295Z,6.90
2022-08-02T19:56:00.074Z,5.25
2022-08-02T19:58:19.531Z,6.63
2022-08-02T20:00:47.367Z,7.35
2022-08-02T20:03:11.377Z,6.88
2022-08-02T20:05:41.229Z,8.80
2022-08-02T20:08:05.571Z,7.07
2022-08-02T20:10:30.383Z,6.07
2022-08-02T20:12:57.512Z,6.53
2022-08-02T20:15:21.969Z,8.25
2022-08-02T20:17:47.328Z,6.30
2022-08-02T20:20:12.763Z,7.88
2022-08-02T20:22:58.655Z,6.35
2022-08-02T20:25:22.634Z,9.75
2022-08-02T20:27:51.030Z,6.45
2022-08-02T20:30:15.265Z,7.93
2022-08-02T20:32:38.991Z,8.32
2022-08-02T20:35:18.417Z,8.32
2022-08-02T20:37:59.538Z,5.88
2022-08-02T20:40:25.761Z,5.43
2022-08-02T20:42:49.534Z,8.57
2022-08-02T20:45:14.007Z,7.65
2022-08-02T20:47:40.346Z,7.30
2022-08-02T20:50:22.085Z,6.68
2022-08-02T20:52:55.960Z,6.90
2022-08-02T20:55:19.688Z,6.10
2022-08-02T20:57:49.125Z,7.78
2022-08-02T21:00:24.451Z,4.85
2022-08-02T21:02:48.092Z,8.45
2022-08-02T21:05:17.249Z,7.68
2022-08-02T21:07:42.015Z,5.22
2022-08-02T21:10:13.164Z,6.38
2022-08-02T21:12:37.148Z,9.20
2022-08-02T21:15:05.860Z,6.78
2022-08-02T21:17:42.550Z,7.80
2022-08-02T21:20:16.694Z,10.05
2022-08-02T21:22:40.640Z,10.80
2022-08-02T21:25:04.673Z,6.50
2022-08-02T21:27:53.339Z,9.20
2022-08-02T21:30:18.685Z,8.02
2022-08-02T21:32:42.379Z,9.25
2022-08-02T21:35:10.000Z,7.80
2022-08-02T21:37:44.562Z,9.55
2022-08-02T21:40:11.312Z,6.43
2022-08-02T21:42:36.475Z,5.20
2022-08-02T21:45:00.432Z,7.97
2022-08-02T21:47:26.773Z,6.35
2022-08-02T21:50:12.907Z,10.38
2022-08-02T21:52:34.690Z,8.70
2022-08-02T21:54:58.868Z,7.45
2022-08-02T21:57:23.014Z,8.75
2022-08-02T21:59:52.815Z,6.82
2022-08-02T22:02:22.196Z,10.05
2022-08-02T22:04:54.903Z,10.63
2022-08-02T22:07:24.077Z,11.40
2022-08-02T22:09:48.472Z,10.45
2022-08-02T22:12:17.670Z,8.75
2022-08-02T22:15:01.003Z,8.55
2022-08-02T22:17:49.836Z,8.55
2022-08-02T22:20:12.611Z,8.32
2022-08-02T22:22:37.305Z,10.88
2022-08-02T22:25:01.470Z,7.95
2022-08-02T22:28:13.260Z,12.02
2022-08-02T22:30:14.166Z,9.70
2022-08-02T22:32:55.999Z,15.10
2022-08-02T22:35:19.735Z,10.30
2022-08-02T22:38:17.587Z,11.02
2022-08-02T22:40:27.584Z,9.93
2022-08-02T22:42:51.629Z,8.95
2022-08-02T22:45:16.835Z,9.23
2022-08-02T22:47:51.121Z,9.15
2022-08-02T22:50:15.184Z,9.95
2022-08-02T22:52:39.772Z,10.45
2022-08-02T22:55:03.584Z,9.35
2022-08-02T22:57:30.339Z,8.60
2022-08-02T22:59:55.067Z,8.98
2022-08-02T23:02:20.188Z,9.85
2022-08-02T23:04:48.895Z,9.00
2022-08-02T23:07:12.620Z,8.82
2022-08-02T23:09:36.528Z,6.22
2022-08-02T23:12:00.271Z,8.95
2022-08-02T23:14:24.023Z,7.90
2022-08-02T23:17:05.098Z,10.40
2022-08-02T23:19:47.715Z,9.82
2022-08-02T23:22:11.575Z,8.48
2022-08-02T23:24:35.341Z,7.63
2022-08-02T23:26:59.152Z,11.07
2022-08-02T23:29:22.822Z,6.80
2022-08-02T23:31:46.548Z,6.63
2022-08-02T23:34:10.204Z,6.80
2022-08-02T23:36:35.460Z,9.93
2022-08-02T23:38:59.750Z,11.25
2022-08-02T23:41:23.893Z,10.43
2022-08-02T23:44:11.192Z,11.52
2022-08-02T23:46:31.508Z,6.80
2022-08-02T23:48:55.233Z,9.15
2022-08-02T23:51:22.312Z,9.27
2022-08-02T23:53:47.511Z,8.18
2022-08-02T23:56:11.354Z,9.52
2022-08-02T23:58:35.041Z,8.77
